Time;durP1;ratioP1;P1;durP2;ratioP2;P2;SDS_P1;SDS_P2;PMS_P1;PMS_P2;Temp;Humidity;BMP_temperature;BMP_pressure;BME280_temperature;BME280_humidity;BME280_pressure;Samples;Min_cycle;Max_cycle;Signal;HPM_P1;HPM_P2
2021/09/02 00:16:39;;;;;;;14.30;7.20;;;;;;;;;;4950836;28;20076;31
2021/09/02 00:19:05;;;;;;;12.65;7.82;;;;;;;;;;4178731;34;20251;-66
2021/09/02 00:21:31;;;;;;;14.63;7.32;;;;;;;;;;4179199;34;20133;-67
2021/09/02 00:23:57;;;;;;;9.85;6.57;;;;;;;;;;4166328;34;20149;-69
2021/09/02 00:26:23;;;;;;;17.95;6.80;;;;;;;;;;4179045;34;20106;-68
2021/09/02 00:28:49;;;;;;;12.37;7.07;;;;;;;;;;4178123;34;20101;-69
2021/09/02 00:31:14;;;;;;;9.85;6.60;;;;;;;;;;4179327;34;20109;-68
2021/09/02 00:33:40;;;;;;;13.90;7.65;;;;;;;;;;4179166;34;20130;-69
2021/09/02 00:36:06;;;;;;;17.00;6.90;;;;;;;;;;4178912;34;20125;-69
2021/09/02 00:38:32;;;;;;;10.95;6.97;;;;;;;;;;4179359;34;20144;-69
2021/09/02 00:40:59;;;;;;;13.02;7.07;;;;;;;;;;4166274;34;20137;-69
2021/09/02 00:43:26;;;;;;;10.68;6.68;;;;;;;;;;4178844;34;20126;-69
2021/09/02 00:45:54;;;;;;;16.58;6.82;;;;;;;;;;4178918;34;20110;-70
2021/09/02 00:48:20;;;;;;;13.93;7.47;;;;;;;;;;4166326;34;20186;-68
2021/09/02 00:50:47;;;;;;;9.02;6.37;;;;;;;;;;4178994;34;20141;-69
2021/09/02 00:53:13;;;;;;;12.20;8.02;;;;;;;;;;4178997;34;20527;-68
2021/09/02 00:55:39;;;;;;;17.00;7.12;;;;;;;;;;4178991;34;20127;-68
2021/09/02 00:58:05;;;;;;;11.70;7.50;;;;;;;;;;4179061;34;20489;-69
2021/09/02 01:00:30;;;;;;;16.73;8.23;;;;;;;;;;4178709;34;20137;-69
2021/09/02 01:02:56;;;;;;;12.45;7.03;;;;;;;;;;4179157;34;20102;-69
2021/09/02 01:05:22;;;;;;;12.55;7.32;;;;;;;;;;4179093;34;20098;-68
2021/09/02 01:07:48;;;;;;;11.10;6.03;;;;;;;;;;4178857;34;20113;-67
2021/09/02 01:10:15;;;;;;;12.48;7.00;;;;;;;;;;4166126;34;20106;-69
2021/09/02 01:12:42;;;;;;;13.43;6.95;;;;;;;;;;4166166;34;20114;-69
2021/09/02 01:15:27;;;;;;;10.73;7.07;;;;;;;;;;4178711;34;20535;-69
2021/09/02 01:17:58;;;;;;;10.38;6.97;;;;;;;;;;4178354;34;20141;-70
2021/09/02 01:20:26;;;;;;;14.95;6.95;;;;;;;;;;4178626;34;20121;-70
2021/09/02 01:22:53;;;;;;;11.68;7.62;;;;;;;;;;4178543;34;20459;-68
2021/09/02 01:25:21;;;;;;;15.45;7.45;;;;;;;;;;4178169;34;20207;-69
2021/09/02 01:27:50;;;;;;;11.18;7.03;;;;;;;;;;4178677;34;20526;-69
2021/09/02 01:30:16;;;;;;;15.50;7.68;;;;;;;;;;4166049;34;20115;-70
2021/09/02 01:32:45;;;;;;;9.70;7.00;;;;;;;;;;4178417;34;20159;-69
2021/09/02 01:35:11;;;;;;;17.05;7.60;;;;;;;;;;4166006;34;20098;-69
2021/09/02 01:37:44;;;;;;;11.77;8.07;;;;;;;;;;4165880;34;20125;-68
2021/09/02 01:40:27;;;;;;;11.90;7.75;;;;;;;;;;4178725;34;20122;-68
2021/09/02 01:42:54;;;;;;;12.65;7.70;;;;;;;;;;4178595;34;20109;-69
2021/09/02 01:45:19;;;;;;;15.32;8.32;;;;;;;;;;4178795;34;20205;-70
2021/09/02 01:47:46;;;;;;;12.20;7.65;;;;;;;;;;4178425;34;20435;-69
2021/09/02 01:50:16;;;;;;;10.88;7.57;;;;;;;;;;4178439;34;20200;-70
2021/09/02 01:52:42;;;;;;;16.48;8.90;;;;;;;;;;4166137;34;20179;-70
2021/09/02 01:55:08;;;;;;;16.40;7.87;;;;;;;;;;4178218;34;20141;-69
2021/09/02 01:57:35;;;;;;;15.95;8.02;;;;;;;;;;4178437;34;20145;-70
2021/09/02 02:00:01;;;;;;;12.02;7.75;;;;;;;;;;4165967;34;20141;-69
2021/09/02 02:02:27;;;;;;;17.87;8.35;;;;;;;;;;4178311;34;20403;-68
2021/09/02 02:04:52;;;;;;;20.58;7.95;;;;;;;;;;4178167;34;20116;-70
2021/09/02 02:07:18;;;;;;;13.62;7.87;;;;;;;;;;4165756;34;20195;-69
2021/09/02 02:09:44;;;;;;;11.77;7.37;;;;;;;;;;4165558;34;20183;-70
2021/09/02 02:12:10;;;;;;;16.80;8.43;;;;;;;;;;4177833;34;20531;-70
2021/09/02 02:14:36;;;;;;;13.45;8.10;;;;;;;;;;4178258;34;20154;-70
2021/09/02 02:17:02;;;;;;;18.92;7.97;;;;;;;;;;4178152;34;20462;-67
2021/09/02 02:19:28;;;;;;;14.32;7.62;;;;;;;;;;4178411;34;20126;-69
2021/09/02 02:21:54;;;;;;;9.85;7.00;;;;;;;;;;4177994;34;20265;-70
2021/09/02 02:24:20;;;;;;;13.65;7.12;;;;;;;;;;4177937;34;20161;-68
2021/09/02 02:26:46;;;;;;;10.57;6.68;;;;;;;;;;4177850;34;20509;-71
2021/09/02 02:29:12;;;;;;;10.85;7.15;;;;;;;;;;4177920;34;20202;-68
2021/09/02 02:31:37;;;;;;;15.82;7.10;;;;;;;;;;4177792;34;20118;-68
2021/09/02 02:34:03;;;;;;;17.95;7.43;;;;;;;;;;4177920;34;20537;-68
2021/09/02 02:36:29;;;;;;;14.27;7.32;;;;;;;;;;4177584;34;20510;-68
2021/09/02 02:38:55;;;;;;;11.65;6.32;;;;;;;;;;4177815;34;20140;-70
2021/09/02 02:41:21;;;;;;;10.05;6.47;;;;;;;;;;4165549;34;20114;-67
2021/09/02 02:43:47;;;;;;;14.25;6.82;;;;;;;;;;4177991;34;20516;-69
2021/09/02 02:46:13;;;;;;;16.67;7.37;;;;;;;;;;4177828;34;20274;-67
2021/09/02 02:48:39;;;;;;;13.13;7.57;;;;;;;;;;4177803;34;20133;-71
2021/09/02 02:51:05;;;;;;;12.93;7.18;;;;;;;;;;4177791;34;20144;-69
2021/09/02 02:53:31;;;;;;;17.17;7.12;;;;;;;;;;4165438;34;20134;-67
2021/09/02 02:55:57;;;;;;;16.70;7.03;;;;;;;;;;4177682;34;20290;-67
2021/09/02 02:58:22;;;;;;;22.92;7.55;;;;;;;;;;4177754;34;20128;-70
2021/09/02 03:00:48;;;;;;;11.60;7.20;;;;;;;;;;4177644;34;20125;-67
2021/09/02 03:03:14;;;;;;;14.95;7.55;;;;;;;;;;4169591;34;20130;-70
2021/09/02 03:05:40;;;;;;;14.00;6.80;;;;;;;;;;4162052;34;20502;-69
2021/09/02 03:08:06;;;;;;;12.88;7.53;;;;;;;;;;4163277;34;20083;-67
2021/09/02 03:10:32;;;;;;;13.90;6.53;;;;;;;;;;4163209;34;20119;-67
2021/09/02 03:12:58;;;;;;;11.60;7.62;;;;;;;;;;4160851;34;20191;-67
2021/09/02 03:15:24;;;;;;;10.32;6.50;;;;;;;;;;4149944;34;20519;-68
2021/09/02 03:17:50;;;;;;;16.45;7.30;;;;;;;;;;4162884;34;20578;-66
2021/09/02 03:20:16;;;;;;;16.23;6.93;;;;;;;;;;4162737;34;20654;-69
2021/09/02 03:22:42;;;;;;;15.35;7.50;;;;;;;;;;4162235;34;20525;-67
2021/09/02 03:25:08;;;;;;;14.02;6.60;;;;;;;;;;4150005;34;20142;-67
2021/09/02 03:27:35;;;;;;;13.15;6.70;;;;;;;;;;4160910;34;20206;-67
2021/09/02 03:30:01;;;;;;;12.35;6.80;;;;;;;;;;4150302;34;20223;-67
2021/09/02 03:32:27;;;;;;;10.00;6.47;;;;;;;;;;4166922;34;20288;-67
2021/09/02 03:34:53;;;;;;;14.45;6.70;;;;;;;;;;4149407;34;20194;-69
2021/09/02 03:37:18;;;;;;;10.02;5.70;;;;;;;;;;4163883;34;20126;-69
2021/09/02 03:39:44;;;;;;;14.07;6.62;;;;;;;;;;4163368;34;20440;-70
2021/09/02 03:42:10;;;;;;;15.05;6.62;;;;;;;;;;4163596;34;20179;-71
2021/09/02 03:44:36;;;;;;;14.48;6.10;;;;;;;;;;4163372;34;20115;-68
2021/09/02 03:47:02;;;;;;;14.95;6.70;;;;;;;;;;4163600;34;20469;-71
2021/09/02 03:49:28;;;;;;;16.27;6.70;;;;;;;;;;4166993;34;20198;-68
2021/09/02 03:51:54;;;;;;;17.27;5.82;;;;;;;;;;4168197;34;20134;-72
2021/09/02 03:54:20;;;;;;;18.37;6.00;;;;;;;;;;4153960;34;20569;-74
2021/09/02 03:56:46;;;;;;;10.80;5.45;;;;;;;;;;4166631;34;20212;-71
2021/09/02 03:59:11;;;;;;;15.10;7.28;;;;;;;;;;4166179;34;20190;-71
2021/09/02 04:01:37;;;;;;;18.52;6.00;;;;;;;;;;4167776;34;20439;-71
2021/09/02 04:04:03;;;;;;;9.82;5.12;;;;;;;;;;4167586;34;20124;-70
2021/09/02 04:06:29;;;;;;;16.75;6.47;;;;;;;;;;4166733;34;20582;-71
2021/09/02 04:08:55;;;;;;;11.60;5.87;;;;;;;;;;4166641;34;20486;-70
2021/09/02 04:11:21;;;;;;;11.07;5.68;;;;;;;;;;4166634;34;20130;-71
2021/09/02 04:13:47;;;;;;;13.25;5.55;;;;;;;;;;4166814;34;20115;-71
2021/09/02 04:16:13;;;;;;;11.95;6.47;;;;;;;;;;4166428;34;20571;-71
2021/09/02 04:18:38;;;;;;;15.48;5.80;;;;;;;;;;4153654;34;20127;-65
2021/09/02 04:21:04;;;;;;;15.90;5.93;;;;;;;;;;4166679;34;20546;-65
2021/09/02 04:23:32;;;;;;;16.87;5.20;;;;;;;;;;4170764;34;20138;-65
2021/09/02 04:25:59;;;;;;;7.62;4.62;;;;;;;;;;4166586;34;20117;-65
2021/09/02 04:28:25;;;;;;;12.50;5.12;;;;;;;;;;4166177;34;20592;-64
2021/09/02 04:30:51;;;;;;;9.50;5.20;;;;;;;;;;4165649;34;20146;-66
2021/09/02 04:33:16;;;;;;;10.52;5.78;;;;;;;;;;4166509;34;20137;-65
2021/09/02 04:35:42;;;;;;;11.75;6.05;;;;;;;;;;4166391;34;20557;-71
2021/09/02 04:38:08;;;;;;;12.52;6.15;;;;;;;;;;4166482;34;20127;-71
2021/09/02 04:40:34;;;;;;;14.27;5.60;;;;;;;;;;4166301;34;20255;-71
2021/09/02 04:43:00;;;;;;;14.73;5.90;;;;;;;;;;4170780;34;20138;-71
2021/09/02 04:45:26;;;;;;;11.75;5.80;;;;;;;;;;4166254;34;20133;-70
2021/09/02 04:47:52;;;;;;;11.05;5.60;;;;;;;;;;4166175;34;20111;-72
2021/09/02 04:50:18;;;;;;;11.23;5.53;;;;;;;;;;4166351;34;20562;-71
2021/09/02 04:52:44;;;;;;;10.80;5.57;;;;;;;;;;4166173;34;20118;-68
2021/09/02 04:55:10;;;;;;;15.50;6.60;;;;;;;;;;4166134;34;20527;-67
2021/09/02 04:57:37;;;;;;;15.30;6.78;;;;;;;;;;4159653;34;20103;-71
2021/09/02 05:00:04;;;;;;;10.88;5.82;;;;;;;;;;4150706;34;20107;-71
2021/09/02 05:02:30;;;;;;;12.37;6.50;;;;;;;;;;4163732;34;20119;-70
2021/09/02 05:04:56;;;;;;;15.55;6.35;;;;;;;;;;4163029;34;20205;-65
2021/09/02 05:07:22;;;;;;;21.48;8.05;;;;;;;;;;4151878;34;20479;-68
2021/09/02 05:09:48;;;;;;;18.48;6.80;;;;;;;;;;4163243;34;20153;-72
2021/09/02 05:12:15;;;;;;;9.43;6.20;;;;;;;;;;4164597;34;20126;-70
2021/09/02 05:14:41;;;;;;;12.45;6.25;;;;;;;;;;4141019;34;20130;-72
2021/09/02 05:17:08;;;;;;;16.50;6.50;;;;;;;;;;4164883;34;20130;-68
2021/09/02 05:19:35;;;;;;;15.15;6.93;;;;;;;;;;4164834;34;20095;-71
2021/09/02 05:22:01;;;;;;;9.15;5.10;;;;;;;;;;4164817;34;20174;-71
2021/09/02 05:24:27;;;;;;;14.98;6.45;;;;;;;;;;4164951;34;20498;-70
2021/09/02 05:26:53;;;;;;;13.60;6.20;;;;;;;;;;4164706;34;20199;-70
2021/09/02 05:29:18;;;;;;;11.20;6.65;;;;;;;;;;4164703;34;20130;-71
2021/09/02 05:31:44;;;;;;;9.13;6.28;;;;;;;;;;4164645;34;20114;-66
2021/09/02 05:34:10;;;;;;;17.33;6.18;;;;;;;;;;4164716;34;20137;-71
2021/09/02 05:36:36;;;;;;;10.18;6.30;;;;;;;;;;4164575;34;20554;-73
2021/09/02 05:39:03;;;;;;;9.60;6.03;;;;;;;;;;4164703;34;20131;-68
2021/09/02 05:41:30;;;;;;;13.18;6.20;;;;;;;;;;4152052;34;20126;-68
2021/09/02 05:43:55;;;;;;;16.83;5.87;;;;;;;;;;4164677;34;20107;-65
2021/09/02 05:46:21;;;;;;;7.05;5.82;;;;;;;;;;4164546;34;20126;-72
2021/09/02 05:48:47;;;;;;;11.82;6.07;;;;;;;;;;4164605;34;20134;-65
2021/09/02 05:51:13;;;;;;;11.57;6.00;;;;;;;;;;4164498;34;20218;-65
2021/09/02 05:53:39;;;;;;;13.45;6.50;;;;;;;;;;4151079;34;20118;-72
2021/09/02 05:56:05;;;;;;;10.98;6.55;;;;;;;;;;4164057;34;20210;-72
2021/09/02 05:58:31;;;;;;;13.43;6.68;;;;;;;;;;4164261;34;20098;-68
2021/09/02 06:00:57;;;;;;;13.95;5.50;;;;;;;;;;4151816;34;20530;-65
2021/09/02 06:03:23;;;;;;;8.75;4.72;;;;;;;;;;4164307;34;20429;-65
2021/09/02 06:05:49;;;;;;;9.30;5.93;;;;;;;;;;4164558;34;20233;-71
2021/09/02 06:08:15;;;;;;;10.68;5.70;;;;;;;;;;4164273;34;20553;-68
2021/09/02 06:10:41;;;;;;;11.38;6.97;;;;;;;;;;4163886;34;20524;-65
2021/09/02 06:13:07;;;;;;;9.77;6.60;;;;;;;;;;4164737;34;20187;-68
2021/09/02 06:15:33;;;;;;;13.48;6.87;;;;;;;;;;4164507;34;20206;-72
2021/09/02 06:17:59;;;;;;;15.50;6.72;;;;;;;;;;4164060;34;20221;-65
2021/09/02 06:20:25;;;;;;;16.33;6.80;;;;;;;;;;4164247;34;20142;-72
2021/09/02 06:22:52;;;;;;;15.00;6.40;;;;;;;;;;4163123;34;20184;-66
2021/09/02 06:25:18;;;;;;;17.00;7.82;;;;;;;;;;4164335;34;20106;-68
2021/09/02 06:27:44;;;;;;;17.50;7.25;;;;;;;;;;4164121;34;20618;-72
2021/09/02 06:30:10;;;;;;;14.48;6.95;;;;;;;;;;4151577;34;20134;-65
2021/09/02 06:32:36;;;;;;;10.48;6.50;;;;;;;;;;4163966;34;20126;-67
2021/09/02 06:35:02;;;;;;;11.50;5.70;;;;;;;;;;4163924;34;20222;-66
2021/09/02 06:37:27;;;;;;;8.98;5.60;;;;;;;;;;4164104;34;20691;-65
2021/09/02 06:39:53;;;;;;;9.18;5.53;;;;;;;;;;4164094;34;20507;-68
2021/09/02 06:42:19;;;;;;;10.90;6.05;;;;;;;;;;4163955;34;20192;-71
2021/09/02 06:44:45;;;;;;;7.37;4.93;;;;;;;;;;4164022;34;20297;-65
2021/09/02 06:47:11;;;;;;;13.48;5.57;;;;;;;;;;4164115;34;20107;-70
2021/09/02 06:49:37;;;;;;;11.90;6.28;;;;;;;;;;4151467;34;20238;-68
2021/09/02 06:52:03;;;;;;;12.18;5.93;;;;;;;;;;4164067;34;20199;-65
2021/09/02 06:54:29;;;;;;;10.75;7.10;;;;;;;;;;4163988;34;20151;-71
2021/09/02 06:56:55;;;;;;;17.17;5.62;;;;;;;;;;4163942;34;20186;-70
2021/09/02 06:59:21;;;;;;;9.45;4.93;;;;;;;;;;4163866;34;20537;-69
2021/09/02 07:01:47;;;;;;;10.15;5.53;;;;;;;;;;4163710;34;20191;-66
2021/09/02 07:04:14;;;;;;;16.40;5.80;;;;;;;;;;4163788;34;20513;-64
2021/09/02 07:06:40;;;;;;;9.50;5.65;;;;;;;;;;4163775;34;20107;-66
2021/09/02 07:09:06;;;;;;;10.63;5.60;;;;;;;;;;4163839;34;20126;-69
2021/09/02 07:11:32;;;;;;;12.02;5.82;;;;;;;;;;4151478;34;20229;-63
2021/09/02 07:13:58;;;;;;;7.37;4.55;;;;;;;;;;4163720;34;20134;-70
2021/09/02 07:16:24;;;;;;;13.07;5.60;;;;;;;;;;4151311;34;20122;-64
2021/09/02 07:18:50;;;;;;;9.30;5.72;;;;;;;;;;4163827;34;20150;-69
2021/09/02 07:21:16;;;;;;;11.32;5.90;;;;;;;;;;4150740;34;20711;-66
2021/09/02 07:23:41;;;;;;;8.75;5.62;;;;;;;;;;4162973;34;20196;-70
2021/09/02 07:26:08;;;;;;;12.23;5.78;;;;;;;;;;4163996;34;20514;-69
2021/09/02 07:28:34;;;;;;;10.82;6.05;;;;;;;;;;4163675;34;20577;-69
2021/09/02 07:30:59;;;;;;;11.48;6.40;;;;;;;;;;4163613;34;20118;-71
2021/09/02 07:33:25;;;;;;;13.35;6.20;;;;;;;;;;4163484;34;20115;-66
2021/09/02 07:35:51;;;;;;;8.52;5.57;;;;;;;;;;4163601;34;20150;-70
2021/09/02 07:38:17;;;;;;;4.70;3.03;;;;;;;;;;4151022;34;20572;-70
2021/09/02 07:40:43;;;;;;;8.75;5.57;;;;;;;;;;4150971;34;20601;-69
2021/09/02 07:43:09;;;;;;;7.97;5.30;;;;;;;;;;4163914;34;20110;-64
2021/09/02 07:45:35;;;;;;;7.50;4.30;;;;;;;;;;4163564;34;20127;-68
2021/09/02 07:48:02;;;;;;;9.63;4.57;;;;;;;;;;4163631;34;20127;-71
2021/09/02 07:50:28;;;;;;;9.50;5.47;;;;;;;;;;4163469;34;20110;-66
2021/09/02 07:52:53;;;;;;;8.77;5.07;;;;;;;;;;4163553;34;20106;-67
2021/09/02 07:55:19;;;;;;;9.27;5.25;;;;;;;;;;4163295;34;20560;-70
2021/09/02 07:57:48;;;;;;;7.45;5.15;;;;;;;;;;4163420;34;20106;-64
2021/09/02 08:00:15;;;;;;;8.57;4.95;;;;;;;;;;4163227;34;20127;-67
2021/09/02 08:02:41;;;;;;;7.15;4.72;;;;;;;;;;4163392;34;20114;-67
2021/09/02 08:05:08;;;;;;;6.85;4.50;;;;;;;;;;4163353;34;20119;-70
2021/09/02 08:07:50;;;;;;;9.05;4.53;;;;;;;;;;4163414;34;20678;-70
2021/09/02 08:10:17;;;;;;;9.25;4.22;;;;;;;;;;4139710;34;20119;-69
2021/09/02 08:12:43;;;;;;;6.78;4.37;;;;;;;;;;4139483;34;20122;-65
2021/09/02 08:15:10;;;;;;;10.73;5.95;;;;;;;;;;4150653;34;20207;-67
2021/09/02 08:17:35;;;;;;;8.48;5.00;;;;;;;;;;4162875;34;20593;-64
2021/09/02 08:20:02;;;;;;;8.45;4.45;;;;;;;;;;4150608;34;20593;-69
2021/09/02 08:22:28;;;;;;;6.28;4.25;;;;;;;;;;4162719;34;20202;-70
2021/09/02 08:24:54;;;;;;;9.45;3.83;;;;;;;;;;4162919;34;20292;-65
2021/09/02 08:27:20;;;;;;;6.90;4.40;;;;;;;;;;4163140;34;20546;-69
2021/09/02 08:29:47;;;;;;;11.18;4.85;;;;;;;;;;4163308;34;20123;-70
2021/09/02 08:32:13;;;;;;;9.98;4.40;;;;;;;;;;4158480;34;20123;-70
2021/09/02 08:34:39;;;;;;;6.00;4.00;;;;;;;;;;4158600;34;20222;-69
2021/09/02 08:37:04;;;;;;;6.07;3.72;;;;;;;;;;4162231;34;20203;-70
2021/09/02 08:39:30;;;;;;;9.07;3.90;;;;;;;;;;4150557;34;20137;-67
2021/09/02 08:41:56;;;;;;;6.28;4.47;;;;;;;;;;4164914;34;20459;-66
2021/09/02 08:44:23;;;;;;;7.07;4.40;;;;;;;;;;4159186;34;20126;-66
2021/09/02 08:46:49;;;;;;;6.43;4.00;;;;;;;;;;4174453;34;20112;-66
2021/09/02 08:49:22;;;;;;;9.50;4.35;;;;;;;;;;4158184;34;20133;-66
2021/09/02 08:51:49;;;;;;;6.45;3.97;;;;;;;;;;4153117;34;20107;-66
2021/09/02 08:54:15;;;;;;;7.65;5.47;;;;;;;;;;4161451;34;20144;-67
2021/09/02 08:56:40;;;;;;;6.28;4.10;;;;;;;;;;4140093;34;20485;-66
2021/09/02 08:59:06;;;;;;;14.23;4.87;;;;;;;;;;4162953;34;20109;-66
2021/09/02 09:01:32;;;;;;;5.90;4.28;;;;;;;;;;4163382;34;20138;-67
2021/09/02 09:03:58;;;;;;;6.00;3.60;;;;;;;;;;4163261;34;20486;-67
2021/09/02 09:06:26;;;;;;;6.62;5.00;;;;;;;;;;4163726;34;20090;-67
2021/09/02 09:08:52;;;;;;;7.07;3.75;;;;;;;;;;4168439;34;20114;-67
2021/09/02 09:11:28;;;;;;;9.63;3.97;;;;;;;;;;4155057;34;20479;-67
2021/09/02 09:14:10;;;;;;;10.23;4.57;;;;;;;;;;4145005;34;20673;-66
2021/09/02 09:16:51;;;;;;;8.13;4.25;;;;;;;;;;4159367;34;20122;-67
2021/09/02 09:19:36;;;;;;;10.93;4.62;;;;;;;;;;4157296;34;20095;-66
2021/09/02 09:22:03;;;;;;;7.50;4.10;;;;;;;;;;4168934;34;20119;-66
2021/09/02 09:24:55;;;;;;;6.43;3.97;;;;;;;;;;4171637;34;20272;-67
2021/09/02 09:27:35;;;;;;;4.60;3.83;;;;;;;;;;4166990;34;20111;-66
2021/09/02 09:30:09;;;;;;;5.50;3.90;;;;;;;;;;4154813;34;20109;-67
2021/09/02 09:32:56;;;;;;;7.25;3.92;;;;;;;;;;4153811;34;20114;-67
2021/09/02 09:35:43;;;;;;;7.30;3.85;;;;;;;;;;4161916;34;20110;-66
2021/09/02 09:38:18;;;;;;;8.07;4.25;;;;;;;;;;4162950;34;20102;-67
2021/09/02 09:40:51;;;;;;;6.20;4.57;;;;;;;;;;4164583;34;20110;-67
2021/09/02 09:43:26;;;;;;;10.63;3.90;;;;;;;;;;4161567;34;20134;-67
2021/09/02 09:45:55;;;;;;;17.30;4.82;;;;;;;;;;4167839;34;20097;-66
2021/09/02 09:48:34;;;;;;;8.27;4.87;;;;;;;;;;4166559;34;20120;-67
2021/09/02 09:51:06;;;;;;;12.10;6.12;;;;;;;;;;4171524;34;20111;-66
2021/09/02 09:53:32;;;;;;;8.18;4.32;;;;;;;;;;4164612;34;20115;-66
2021/09/02 09:55:58;;;;;;;8.35;4.45;;;;;;;;;;4170200;34;20208;-66
2021/09/02 09:58:25;;;;;;;7.05;4.10;;;;;;;;;;4177868;34;20141;-67
2021/09/02 10:00:59;;;;;;;9.15;5.12;;;;;;;;;;4177939;34;20519;-66
2021/09/02 10:03:25;;;;;;;12.65;4.37;;;;;;;;;;4177905;34;20110;-66
2021/09/02 10:05:51;;;;;;;11.12;4.43;;;;;;;;;;4166112;34;20110;-66
2021/09/02 10:08:19;;;;;;;8.95;5.50;;;;;;;;;;4164086;34;20094;-67
2021/09/02 10:10:47;;;;;;;14.70;5.10;;;;;;;;;;4170657;34;20165;-66
2021/09/02 10:13:12;;;;;;;15.40;5.72;;;;;;;;;;4164753;34;20528;-67
2021/09/02 10:15:39;;;;;;;16.50;4.20;;;;;;;;;;4151370;34;20114;-66
2021/09/02 10:18:05;;;;;;;9.25;4.32;;;;;;;;;;4156127;34;20122;-67
2021/09/02 10:20:36;;;;;;;6.45;4.15;;;;;;;;;;4155215;34;20190;-67
2021/09/02 10:23:03;;;;;;;6.60;4.32;;;;;;;;;;4138564;34;20107;-67
2021/09/02 10:25:30;;;;;;;9.43;5.18;;;;;;;;;;4176377;34;20129;-71
2021/09/02 10:28:08;;;;;;;7.93;5.18;;;;;;;;;;4175680;34;20234;-69
2021/09/02 10:30:42;;;;;;;14.13;7.07;;;;;;;;;;4164816;34;20142;-69
2021/09/02 10:33:35;;;;;;;12.37;7.90;;;;;;;;;;4164992;34;20149;-69
2021/09/02 10:36:02;;;;;;;20.77;10.30;;;;;;;;;;4165178;34;20127;-69
2021/09/02 10:38:39;;;;;;;21.23;9.35;;;;;;;;;;4165122;34;20094;-69
2021/09/02 10:41:06;;;;;;;10.63;7.93;;;;;;;;;;4165199;34;20109;-69
2021/09/02 10:43:46;;;;;;;17.65;9.75;;;;;;;;;;4165258;34;20104;-69
2021/09/02 10:46:31;;;;;;;14.32;7.22;;;;;;;;;;4177153;34;20527;-70
2021/09/02 10:49:15;;;;;;;;;;;;;;;;;;4170043;34;20114;-69
2021/09/02 10:51:43;;;;;;;8.55;4.55;;;;;;;;;;4173434;34;20415;-69
2021/09/02 10:54:10;;;;;;;11.25;5.12;;;;;;;;;;4163280;34;20442;-69
2021/09/02 10:56:58;;;;;;;12.15;5.07;;;;;;;;;;4174635;34;20545;-69
2021/09/02 10:59:37;;;;;;;7.50;4.82;;;;;;;;;;4177710;34;20193;-69
2021/09/02 11:02:03;;;;;;;9.45;5.18;;;;;;;;;;4177685;34;20111;-69
2021/09/02 11:04:29;;;;;;;10.38;6.68;;;;;;;;;;4177493;34;20194;-69
2021/09/02 11:06:55;;;;;;;10.63;6.62;;;;;;;;;;4177599;34;20178;-69
2021/09/02 11:09:32;;;;;;;12.23;7.40;;;;;;;;;;4177579;34;20138;-69
2021/09/02 11:11:58;;;;;;;12.18;7.32;;;;;;;;;;4177374;34;20594;-69
2021/09/02 11:14:25;;;;;;;11.68;7.53;;;;;;;;;;4165022;34;20137;-69
2021/09/02 11:16:51;;;;;;;13.25;6.12;;;;;;;;;;4152324;34;20122;-69
2021/09/02 11:19:34;;;;;;;13.32;8.05;;;;;;;;;;4163836;34;20119;-69
2021/09/02 11:22:07;;;;;;;11.90;7.22;;;;;;;;;;4163816;34;20584;-69
2021/09/02 11:24:40;;;;;;;9.45;6.57;;;;;;;;;;4163978;34;20651;-69
2021/09/02 11:27:07;;;;;;;10.90;6.85;;;;;;;;;;4151862;34;20202;-69
2021/09/02 11:29:33;;;;;;;13.70;6.45;;;;;;;;;;4163658;34;20111;-70
2021/09/02 11:32:00;;;;;;;12.07;6.78;;;;;;;;;;4163055;34;20099;-69
2021/09/02 11:34:26;;;;;;;8.05;6.05;;;;;;;;;;4151130;34;20118;-69
2021/09/02 11:36:52;;;;;;;7.20;5.35;;;;;;;;;;4163536;34;20209;-69
2021/09/02 11:39:18;;;;;;;10.65;5.93;;;;;;;;;;4163617;34;20487;-69
2021/09/02 11:41:44;;;;;;;9.00;5.78;;;;;;;;;;4150973;34;20191;-69
2021/09/02 11:44:18;;;;;;;7.07;5.40;;;;;;;;;;4139760;34;20117;-69
2021/09/02 11:46:44;;;;;;;6.97;5.43;;;;;;;;;;4162832;34;20535;-69
2021/09/02 11:49:17;;;;;;;8.18;5.45;;;;;;;;;;4150776;34;20131;-69
2021/09/02 11:51:53;;;;;;;8.82;5.60;;;;;;;;;;4163350;34;20118;-69
2021/09/02 11:54:19;;;;;;;6.57;4.78;;;;;;;;;;4163429;34;20115;-69
2021/09/02 11:56:46;;;;;;;8.10;5.05;;;;;;;;;;4163538;34;20122;-70
2021/09/02 11:59:12;;;;;;;6.90;4.68;;;;;;;;;;4163306;34;20122;-69
2021/09/02 12:01:48;;;;;;;5.68;4.28;;;;;;;;;;4150945;34;20130;-70
2021/09/02 12:04:16;;;;;;;9.00;5.37;;;;;;;;;;4150821;34;20099;-70
2021/09/02 12:06:42;;;;;;;7.32;5.07;;;;;;;;;;4163314;34;20542;-69
2021/09/02 12:09:07;;;;;;;9.60;5.22;;;;;;;;;;4151746;34;20134;-69
2021/09/02 12:11:33;;;;;;;9.57;5.07;;;;;;;;;;4152800;34;20123;-70
2021/09/02 12:14:13;;;;;;;11.48;5.80;;;;;;;;;;4152675;34;20245;-70
2021/09/02 12:16:40;;;;;;;10.43;5.62;;;;;;;;;;4165029;34;20091;-69
2021/09/02 12:19:06;;;;;;;9.48;6.15;;;;;;;;;;4165365;34;20413;-70
2021/09/02 12:21:33;;;;;;;11.82;6.10;;;;;;;;;;4165185;34;20549;-70
2021/09/02 12:24:09;;;;;;;10.95;5.87;;;;;;;;;;4165378;34;20512;-70
2021/09/02 12:26:51;;;;;;;10.02;5.32;;;;;;;;;;4165155;34;20142;-70
2021/09/02 12:29:23;;;;;;;12.45;5.85;;;;;;;;;;4153394;34;20152;-70
2021/09/02 12:31:50;;;;;;;18.23;6.45;;;;;;;;;;4165836;34;20122;-71
2021/09/02 12:34:19;;;;;;;8.60;6.07;;;;;;;;;;4152623;34;20134;-69
2021/09/02 12:36:46;;;;;;;9.07;6.30;;;;;;;;;;4165190;34;20114;-69
2021/09/02 12:39:17;;;;;;;10.85;6.72;;;;;;;;;;4165140;34;20550;-69
2021/09/02 12:41:44;;;;;;;9.23;5.95;;;;;;;;;;4165098;34;20107;-69
2021/09/02 12:44:12;;;;;;;8.65;6.20;;;;;;;;;;4141615;34;20186;-70
2021/09/02 12:46:57;;;;;;;8.80;6.18;;;;;;;;;;4164926;34;20227;-69
2021/09/02 12:49:25;;;;;;;9.50;6.03;;;;;;;;;;4164986;34;20219;-70
2021/09/02 12:52:01;;;;;;;8.98;6.18;;;;;;;;;;4164817;34;20099;-69
2021/09/02 12:54:27;;;;;;;12.07;7.00;;;;;;;;;;4164975;34;20597;-69
2021/09/02 12:56:53;;;;;;;9.35;6.82;;;;;;;;;;4152178;34;20114;-70
2021/09/02 12:59:19;;;;;;;9.57;6.30;;;;;;;;;;4164884;34;20155;-70
2021/09/02 13:01:45;;;;;;;7.87;5.70;;;;;;;;;;4164665;34;20522;-70
2021/09/02 13:04:11;;;;;;;11.98;5.37;;;;;;;;;;4164806;34;20491;-69
2021/09/02 13:06:37;;;;;;;8.02;5.93;;;;;;;;;;4164735;34;20166;-70
2021/09/02 13:09:03;;;;;;;13.85;7.75;;;;;;;;;;4164748;34;20148;-71
2021/09/02 13:11:29;;;;;;;9.90;5.50;;;;;;;;;;4164694;34;20121;-70
2021/09/02 13:13:55;;;;;;;8.23;4.78;;;;;;;;;;4162171;34;20174;-70
2021/09/02 13:16:21;;;;;;;8.02;3.85;;;;;;;;;;4151948;34;20450;-70
2021/09/02 13:18:47;;;;;;;6.15;4.30;;;;;;;;;;4170914;34;20510;-70
2021/09/02 13:21:13;;;;;;;4.78;2.97;;;;;;;;;;4164929;34;20145;-70
2021/09/02 13:23:39;;;;;;;8.00;4.40;;;;;;;;;;4177960;34;20123;-70
2021/09/02 13:26:05;;;;;;;6.55;3.62;;;;;;;;;;4178022;34;20145;-70
2021/09/02 13:28:31;;;;;;;5.28;3.87;;;;;;;;;;4177680;34;20126;-70
2021/09/02 13:30:57;;;;;;;8.68;5.57;;;;;;;;;;4165759;34;20117;-70
2021/09/02 13:33:24;;;;;;;6.40;4.35;;;;;;;;;;4178024;34;20103;-70
2021/09/02 13:35:50;;;;;;;12.32;5.43;;;;;;;;;;4154387;34;20121;-70
2021/09/02 13:38:15;;;;;;;9.70;5.03;;;;;;;;;;4165294;34;20137;-70
2021/09/02 13:40:41;;;;;;;8.00;5.05;;;;;;;;;;4178016;34;20564;-70
2021/09/02 13:43:07;;;;;;;8.07;4.97;;;;;;;;;;4153901;34;20563;-70
2021/09/02 13:45:33;;;;;;;11.27;6.05;;;;;;;;;;4178408;34;20424;-71
2021/09/02 13:48:02;;;;;;;7.65;5.30;;;;;;;;;;4177493;34;20125;-72
2021/09/02 13:50:30;;;;;;;10.65;6.35;;;;;;;;;;4165957;34;20097;-70
2021/09/02 13:52:57;;;;;;;8.45;5.35;;;;;;;;;;4168172;34;20103;-70
2021/09/02 13:55:22;;;;;;;6.47;4.65;;;;;;;;;;4163146;34;20130;-72
2021/09/02 13:57:48;;;;;;;7.70;5.80;;;;;;;;;;4164316;34;20113;-72
2021/09/02 14:00:15;;;;;;;10.73;5.65;;;;;;;;;;4164326;34;20223;-72
2021/09/02 14:02:41;;;;;;;16.60;6.18;;;;;;;;;;4164373;34;20210;-73
2021/09/02 14:05:08;;;;;;;15.27;6.80;;;;;;;;;;4164259;34;20146;-73
2021/09/02 14:07:34;;;;;;;10.18;6.10;;;;;;;;;;4163461;34;20152;-73
2021/09/02 14:10:00;;;;;;;7.62;5.62;;;;;;;;;;4151545;34;20150;-71
2021/09/02 14:12:26;;;;;;;8.13;5.40;;;;;;;;;;4164784;34;20122;-72
2021/09/02 14:14:52;;;;;;;7.75;5.82;;;;;;;;;;4164169;34;20201;-70
2021/09/02 14:17:17;;;;;;;9.27;6.12;;;;;;;;;;4164036;34;20146;-70
2021/09/02 14:19:43;;;;;;;12.10;7.18;;;;;;;;;;4163068;34;20137;-70
2021/09/02 14:22:09;;;;;;;19.05;7.30;;;;;;;;;;4164008;34;20111;-69
2021/09/02 14:24:35;;;;;;;10.57;7.10;;;;;;;;;;4173361;34;20567;-69
2021/09/02 14:27:01;;;;;;;13.50;5.60;;;;;;;;;;4163935;34;20436;-69
2021/09/02 14:29:27;;;;;;;8.50;5.82;;;;;;;;;;4164039;34;20121;-70
2021/09/02 14:31:53;;;;;;;8.80;6.30;;;;;;;;;;4163088;34;20470;-70
2021/09/02 14:34:19;;;;;;;14.80;5.90;;;;;;;;;;4164197;34;20109;-69
2021/09/02 14:36:45;;;;;;;9.73;6.10;;;;;;;;;;4163782;34;20467;-69
2021/09/02 14:39:10;;;;;;;11.45;7.20;;;;;;;;;;4164033;34;20134;-69
2021/09/02 14:41:36;;;;;;;12.43;7.53;;;;;;;;;;4163925;34;20115;-69
2021/09/02 14:44:02;;;;;;;9.18;6.45;;;;;;;;;;4164071;34;20635;-69
2021/09/02 14:46:28;;;;;;;8.50;6.32;;;;;;;;;;4164113;34;20106;-69
2021/09/02 14:48:54;;;;;;;12.98;8.35;;;;;;;;;;4164409;34;20094;-69
2021/09/02 14:51:20;;;;;;;17.90;9.15;;;;;;;;;;4164489;34;20218;-69
2021/09/02 14:53:46;;;;;;;12.27;7.62;;;;;;;;;;4162847;34;20122;-70